Nice-Côte d'Azur Airport (NCE/LFMN)



No chart available
Flight Aircraft Arriving
CPX979
LFPG - Charles de Gaulle
France Paris, France
CPX1904
EDDK - Cologne Bonn Airport
Germany Cologne, Germany
Flight Aircraft Departing
CPX978
LFPG - Charles de Gaulle
France Paris, France


Airport Information
Location: Nice,
Coordinates: 43.6584 / 7.21587
Field Elevation: 12ft
Longest Runway: 9,725ft
ILS Approaches: YES
Landing Fees: $798 per flight
Jet A Price: $0.61/lbs

Current Weather
METAR: LFMN 272200Z 31005KT CAVOK 24/15 Q1011 NOSIG
TAF: TAF LFMN 272000Z 2721/2903 33010KT CAVOK BECMG 2803/2805 12006KT

Recent Arrivals
Date Flight Type Depart
04/19/2022 CPX978 A30F Charles de Gaulle (LFPG)
02/15/2022 CPX978 A30F Charles de Gaulle (LFPG)
Recent Departures
Date Flight Type Arrive
02/15/2022 CPX979 A30F Charles de Gaulle (LFPG)